createdAt,value
2019-05-12T00:00:00.498Z,8.00
2019-05-12T00:02:39.700Z,7.90
2019-05-12T00:05:30.617Z,7.80
2019-05-12T00:08:40.314Z,7.80
2019-05-12T00:11:19.031Z,7.80
2019-05-12T00:14:04.936Z,7.80
2019-05-12T00:16:44.802Z,7.70
2019-05-12T00:19:25.104Z,7.70
2019-05-12T00:22:03.591Z,7.80
2019-05-12T00:24:47.881Z,7.80
2019-05-12T00:27:25.468Z,7.70
2019-05-12T00:30:09.655Z,7.50
2019-05-12T00:32:48.448Z,7.60
2019-05-12T00:35:40.673Z,7.70
2019-05-12T00:38:24.171Z,7.70
2019-05-12T00:41:05.632Z,7.60
2019-05-12T00:44:05.543Z,7.50
2019-05-12T00:46:53.194Z,7.50
2019-05-12T00:49:34.422Z,7.50
2019-05-12T00:55:37.955Z,7.50
2019-05-12T00:58:13.621Z,7.50
2019-05-12T01:00:59.607Z,7.50
2019-05-12T01:03:42.959Z,7.50
2019-05-12T01:06:28.223Z,7.50
2019-05-12T01:09:17.612Z,7.60
2019-05-12T01:11:54.881Z,7.60
2019-05-12T01:14:38.235Z,7.60
2019-05-12T01:17:17.676Z,7.60
2019-05-12T01:20:00.104Z,7.60
2019-05-12T01:22:51.858Z,7.60
2019-05-12T01:25:24.590Z,7.60
2019-05-12T01:27:59.499Z,7.70
2019-05-12T01:30:33.859Z,7.70
2019-05-12T01:33:23.025Z,7.60
2019-05-12T01:35:59.161Z,7.60
2019-05-12T01:38:32.047Z,7.70
2019-05-12T01:41:14.547Z,7.70
2019-05-12T01:43:54.815Z,7.70
2019-05-12T01:46:28.787Z,7.80
2019-05-12T01:48:59.647Z,7.80
2019-05-12T01:51:47.610Z,7.80
2019-05-12T01:54:27.693Z,7.80
2019-05-12T01:57:22.882Z,7.80
2019-05-12T01:59:58.136Z,7.70
2019-05-12T02:02:38.609Z,7.80
2019-05-12T02:05:22.207Z,7.80
2019-05-12T02:07:58.373Z,7.80
2019-05-12T02:10:36.223Z,7.80
2019-05-12T02:13:12.562Z,7.80
2019-05-12T02:15:53.294Z,7.80
2019-05-12T02:18:48.884Z,7.80
2019-05-12T02:21:29.300Z,7.80
2019-05-12T02:24:01.012Z,7.80
2019-05-12T02:26:38.288Z,7.80
2019-05-12T02:29:15.339Z,7.80
2019-05-12T02:31:55.081Z,7.80
2019-05-12T02:34:36.800Z,7.80
2019-05-12T02:37:15.099Z,7.70
2019-05-12T02:39:49.648Z,7.70
2019-05-12T02:42:28.533Z,7.70
2019-05-12T02:45:05.799Z,7.80
2019-05-12T02:47:45.738Z,7.70
2019-05-12T02:50:24.742Z,7.70
2019-05-12T02:53:05.125Z,7.70
2019-05-12T02:55:45.226Z,7.70
2019-05-12T02:58:25.431Z,7.70
2019-05-12T03:01:05.447Z,7.70
2019-05-12T03:03:44.104Z,7.70
2019-05-12T03:06:18.630Z,7.40
2019-05-12T03:08:59.269Z,7.70
2019-05-12T03:11:37.859Z,7.80
2019-05-12T03:14:16.124Z,7.80
2019-05-12T03:16:57.963Z,7.90
2019-05-12T03:19:30.844Z,7.80
2019-05-12T03:22:09.768Z,7.80
2019-05-12T03:25:06.526Z,7.80
2019-05-12T03:27:37.815Z,7.80
2019-05-12T03:30:18.255Z,7.80
2019-05-12T03:32:49.485Z,7.80
2019-05-12T03:35:32.875Z,7.80
2019-05-12T03:37:56.013Z,7.70
2019-05-12T03:40:27.707Z,7.70
2019-05-12T03:43:10.237Z,7.70
2019-05-12T03:49:00.371Z,7.70
2019-05-12T03:51:37.259Z,7.70
2019-05-12T03:54:24.133Z,7.70
2019-05-12T03:56:59.367Z,7.70
2019-05-12T03:59:30.738Z,7.70
2019-05-12T04:02:14.370Z,7.80
2019-05-12T04:04:45.569Z,7.80
2019-05-12T04:07:24.526Z,7.80
2019-05-12T04:09:55.978Z,7.90
2019-05-12T04:12:35.898Z,7.90
2019-05-12T04:15:39.492Z,7.90
2019-05-12T04:18:24.521Z,7.90
2019-05-12T04:21:08.764Z,7.90
2019-05-12T04:23:45.739Z,7.90
2019-05-12T04:26:25.374Z,7.90
2019-05-12T04:29:34.760Z,7.90
2019-05-12T04:32:35.792Z,8.00
2019-05-12T04:35:29.100Z,7.90
2019-05-12T04:38:39.133Z,8.00
2019-05-12T04:41:19.823Z,8.00
2019-05-12T04:44:06.027Z,8.10
2019-05-12T04:46:45.025Z,8.10
2019-05-12T04:49:17.645Z,8.10
2019-05-12T04:51:54.609Z,8.50
2019-05-12T04:54:30.043Z,8.50
2019-05-12T04:57:21.493Z,8.60
2019-05-12T05:00:06.732Z,8.80
2019-05-12T05:02:54.413Z,8.70
2019-05-12T05:05:39.414Z,9.40
2019-05-12T05:08:25.560Z,10.60
2019-05-12T05:10:58.589Z,11.10
2019-05-12T05:13:44.359Z,10.80
2019-05-12T05:16:24.867Z,10.60
2019-05-12T05:19:24.273Z,10.20
2019-05-12T05:21:59.766Z,10.20
2019-05-12T05:24:44.479Z,10.00
2019-05-12T05:27:24.875Z,10.00
2019-05-12T05:30:10.238Z,10.00
2019-05-12T05:32:47.586Z,10.20
2019-05-12T05:35:28.874Z,10.20
2019-05-12T05:38:05.797Z,10.60
2019-05-12T05:40:37.559Z,11.10
2019-05-12T05:43:18.440Z,11.10
2019-05-12T05:45:54.540Z,10.90
2019-05-12T05:48:24.442Z,10.80
2019-05-12T05:51:20.698Z,10.60
2019-05-12T05:53:54.926Z,10.40
2019-05-12T05:56:59.560Z,10.40
2019-05-12T06:00:09.466Z,10.50
2019-05-12T06:03:23.263Z,10.90
2019-05-12T06:06:35.716Z,13.20
2019-05-12T06:09:44.866Z,14.30
2019-05-12T06:16:05.634Z,12.80
2019-05-12T06:18:54.383Z,12.10
2019-05-12T06:21:38.072Z,13.20
2019-05-12T06:24:58.911Z,13.70
2019-05-12T06:28:14.490Z,13.60
2019-05-12T06:31:04.218Z,13.60
2019-05-12T06:34:18.762Z,13.70
2019-05-12T06:37:02.059Z,13.60
2019-05-12T06:39:34.322Z,13.40
2019-05-12T06:42:16.613Z,13.30
2019-05-12T06:44:57.911Z,13.10
2019-05-12T06:47:56.175Z,13.60
2019-05-12T06:50:47.351Z,13.80
2019-05-12T06:53:33.621Z,13.80
2019-05-12T06:56:19.927Z,13.60
2019-05-12T06:59:09.932Z,13.80
2019-05-12T07:02:07.068Z,14.50
2019-05-12T07:04:59.532Z,15.20
2019-05-12T07:07:46.115Z,17.20
2019-05-12T07:10:43.557Z,19.00
2019-05-12T07:13:40.698Z,20.50
2019-05-12T07:19:22.700Z,23.40
2019-05-12T07:22:18.140Z,24.70
2019-05-12T07:24:54.787Z,24.30
2019-05-12T07:27:47.304Z,24.40
2019-05-12T07:30:44.005Z,24.70
2019-05-12T07:33:23.212Z,25.10
2019-05-12T07:36:01.524Z,26.00
2019-05-12T07:38:48.458Z,26.00
2019-05-12T07:41:24.684Z,23.60
2019-05-12T07:44:09.930Z,22.60
2019-05-12T07:47:04.380Z,22.70
2019-05-12T07:49:46.571Z,21.50
2019-05-12T07:52:39.437Z,19.40
2019-05-12T07:55:23.578Z,17.90
2019-05-12T07:58:25.466Z,17.00
2019-05-12T08:01:08.199Z,16.70
2019-05-12T08:03:50.955Z,16.80
2019-05-12T08:06:42.557Z,16.90
2019-05-12T08:09:36.504Z,18.20
2019-05-12T08:12:30.841Z,20.50
2019-05-12T08:15:29.992Z,22.00
2019-05-12T08:18:25.230Z,23.00
2019-05-12T08:21:10.524Z,23.90
2019-05-12T08:24:09.757Z,24.10
2019-05-12T08:26:58.954Z,24.50
2019-05-12T08:29:54.397Z,24.10
2019-05-12T08:32:39.947Z,23.90
2019-05-12T08:35:25.536Z,24.50
2019-05-12T08:38:08.636Z,25.30
2019-05-12T08:41:04.364Z,25.40
2019-05-12T08:43:58.319Z,26.10
2019-05-12T08:46:35.915Z,26.70
2019-05-12T08:49:24.076Z,25.60
2019-05-12T08:52:36.326Z,24.50
2019-05-12T08:55:33.354Z,24.00
2019-05-12T08:58:29.859Z,24.60
2019-05-12T09:01:14.309Z,25.30
2019-05-12T09:03:48.051Z,24.10
2019-05-12T09:06:56.694Z,22.30
2019-05-12T09:09:57.635Z,20.90
2019-05-12T09:12:39.214Z,19.50
2019-05-12T09:15:37.676Z,19.00
2019-05-12T09:18:39.237Z,18.70
2019-05-12T09:21:25.311Z,18.90
2019-05-12T09:24:04.221Z,19.80
2019-05-12T09:27:04.969Z,21.20
2019-05-12T09:29:35.720Z,21.80
2019-05-12T09:32:19.511Z,22.20
2019-05-12T09:35:03.988Z,22.80
2019-05-12T09:37:48.001Z,24.10
2019-05-12T09:40:29.712Z,23.60
2019-05-12T09:43:10.747Z,23.00
2019-05-12T09:45:49.759Z,23.00
2019-05-12T09:48:24.529Z,23.80
2019-05-12T09:51:13.749Z,24.50
2019-05-12T09:53:55.365Z,25.30
2019-05-12T09:56:44.166Z,25.70
2019-05-12T09:59:25.869Z,25.90
2019-05-12T10:02:03.746Z,25.10
2019-05-12T10:04:44.914Z,23.70
2019-05-12T10:07:19.113Z,23.00
2019-05-12T10:10:05.489Z,22.50
2019-05-12T10:12:58.357Z,22.40
2019-05-12T10:15:43.456Z,22.30
2019-05-12T10:18:27.391Z,22.70
2019-05-12T10:21:10.008Z,22.40
2019-05-12T10:24:00.148Z,21.90
2019-05-12T10:26:56.788Z,21.90
2019-05-12T10:30:11.930Z,21.70
2019-05-12T10:33:34.046Z,21.90
2019-05-12T10:36:22.313Z,21.80
2019-05-12T10:39:09.026Z,22.20
2019-05-12T10:41:55.126Z,22.30
2019-05-12T10:45:10.771Z,21.80
2019-05-12T10:48:44.282Z,21.20
2019-05-12T10:51:34.451Z,20.00
2019-05-12T10:54:34.262Z,20.10
2019-05-12T10:58:01.774Z,20.70
2019-05-12T11:04:25.095Z,21.30
2019-05-12T11:07:28.014Z,21.60
2019-05-12T11:11:04.122Z,21.20
2019-05-12T11:14:30.401Z,20.50
2019-05-12T11:17:53.330Z,19.50
2019-05-12T11:20:57.006Z,19.40
2019-05-12T11:24:30.686Z,19.60
2019-05-12T11:28:00.286Z,19.20
2019-05-12T11:30:52.748Z,18.60
2019-05-12T11:33:59.731Z,19.00
2019-05-12T11:37:23.128Z,19.30
2019-05-12T11:40:34.871Z,19.60
2019-05-12T11:43:20.549Z,20.50
2019-05-12T11:46:08.299Z,20.90
2019-05-12T11:49:26.292Z,20.80
2019-05-12T11:52:18.515Z,20.80
2019-05-12T11:55:29.410Z,20.90
2019-05-12T11:58:23.388Z,20.50
2019-05-12T12:01:08.135Z,20.30
2019-05-12T12:04:14.400Z,20.70
2019-05-12T12:07:05.822Z,20.90
2019-05-12T12:10:14.379Z,21.10
2019-05-12T12:13:19.262Z,21.30
2019-05-12T12:16:11.199Z,21.10
2019-05-12T12:19:19.105Z,20.50
2019-05-12T12:22:29.864Z,20.30
2019-05-12T12:25:42.962Z,20.70
2019-05-12T12:28:55.700Z,21.00
2019-05-12T12:32:02.081Z,20.60
2019-05-12T12:35:00.945Z,20.00
2019-05-12T12:37:54.092Z,19.90
2019-05-12T12:41:09.617Z,19.80
2019-05-12T12:44:06.407Z,19.90
2019-05-12T12:47:46.714Z,19.60
2019-05-12T12:50:44.578Z,19.30
2019-05-12T12:57:50.750Z,18.70
2019-05-12T13:01:28.587Z,18.50
2019-05-12T13:04:22.191Z,17.80
2019-05-12T13:07:33.695Z,17.20
2019-05-12T13:10:54.425Z,17.40
2019-05-12T13:14:36.451Z,17.50
2019-05-12T13:17:40.121Z,17.50
2019-05-12T13:20:57.899Z,17.20
2019-05-12T13:23:56.977Z,17.00
2019-05-12T13:26:58.283Z,17.20
2019-05-12T13:30:21.583Z,17.20
2019-05-12T13:33:37.627Z,17.60
2019-05-12T13:37:19.595Z,17.50
2019-05-12T13:40:50.487Z,17.20
2019-05-12T13:44:04.028Z,17.10
2019-05-12T13:47:10.144Z,17.20
2019-05-12T13:50:26.073Z,17.30
2019-05-12T13:53:33.468Z,17.40
2019-05-12T13:56:32.917Z,17.50
2019-05-12T13:59:39.971Z,17.60
2019-05-12T14:02:48.832Z,17.60
2019-05-12T14:06:10.102Z,17.70
2019-05-12T14:08:59.146Z,17.50
2019-05-12T14:12:17.249Z,17.40
2019-05-12T14:22:57.737Z,17.60
2019-05-12T14:26:20.583Z,17.40
2019-05-12T14:29:40.063Z,17.60
2019-05-12T14:32:36.041Z,17.80
2019-05-12T14:35:53.721Z,17.90
2019-05-12T14:39:53.745Z,17.70
2019-05-12T14:42:54.325Z,17.50
2019-05-12T14:45:44.099Z,17.10
2019-05-12T14:49:09.995Z,16.90
2019-05-12T14:52:30.454Z,16.70
2019-05-12T14:55:54.837Z,16.40
2019-05-12T14:58:38.811Z,16.30
2019-05-12T15:01:57.142Z,16.20
2019-05-12T15:04:54.926Z,16.20
2019-05-12T15:08:13.665Z,16.30
2019-05-12T15:11:15.322Z,16.30
2019-05-12T15:14:38.171Z,16.20
2019-05-12T15:18:03.313Z,16.20
2019-05-12T15:25:39.163Z,16.00
2019-05-12T15:29:17.996Z,16.00
2019-05-12T15:32:28.921Z,16.00
2019-05-12T15:35:28.811Z,16.10
2019-05-12T15:38:49.088Z,16.20
2019-05-12T15:42:10.755Z,16.30
2019-05-12T15:45:16.592Z,16.30
2019-05-12T15:48:38.511Z,16.10
2019-05-12T15:51:58.623Z,15.80
2019-05-12T15:54:49.610Z,15.60
2019-05-12T15:57:30.758Z,15.60
2019-05-12T16:03:30.478Z,15.50
2019-05-12T16:06:26.392Z,15.40
2019-05-12T16:09:48.592Z,15.70
2019-05-12T16:13:09.698Z,15.80
2019-05-12T16:16:14.930Z,15.90
2019-05-12T16:26:16.321Z,16.50
2019-05-12T16:30:04.759Z,16.50
2019-05-12T16:33:25.570Z,16.60
2019-05-12T16:37:07.893Z,16.80
2019-05-12T16:39:59.413Z,16.90
2019-05-12T16:42:52.623Z,17.00
2019-05-12T16:46:09.583Z,16.80
2019-05-12T16:49:18.018Z,16.70
2019-05-12T16:52:40.636Z,16.80
2019-05-12T17:00:03.588Z,16.40
2019-05-12T17:02:52.004Z,16.10
2019-05-12T17:05:50.115Z,16.00
2019-05-12T17:08:46.451Z,15.90
2019-05-12T17:23:45.434Z,15.60
2019-05-12T17:27:09.020Z,15.70
2019-05-12T18:04:13.890Z,15.40
2019-05-12T18:07:51.064Z,15.10
2019-05-12T18:23:26.214Z,14.50
2019-05-12T18:30:49.746Z,14.30
2019-05-12T18:34:57.226Z,14.40
2019-05-12T18:42:14.008Z,14.40
2019-05-12T18:46:13.801Z,14.30
2019-05-12T18:49:35.396Z,14.30
2019-05-12T18:53:27.691Z,14.20
2019-05-12T18:56:36.047Z,14.10
2019-05-12T18:59:39.159Z,14.10
2019-05-12T19:06:30.132Z,13.90
2019-05-12T19:14:06.618Z,13.70
2019-05-12T19:17:39.046Z,13.60
2019-05-12T19:24:37.043Z,13.40
2019-05-12T19:28:34.491Z,13.40
2019-05-12T19:32:07.898Z,13.20
2019-05-12T19:39:40.454Z,13.10
2019-05-12T19:43:31.210Z,13.00
2019-05-12T19:46:55.565Z,12.90
2019-05-12T19:50:36.202Z,12.80
2019-05-12T19:53:51.150Z,12.60
2019-05-12T19:57:06.971Z,12.50
2019-05-12T20:00:39.429Z,12.40
2019-05-12T20:19:45.373Z,12.00
2019-05-12T20:22:56.602Z,11.90
2019-05-12T20:26:09.630Z,11.80
2019-05-12T20:44:34.460Z,11.40
2019-05-12T20:47:14.058Z,11.30
2019-05-12T20:53:24.714Z,11.20
2019-05-12T20:56:36.739Z,11.30
2019-05-12T20:59:36.276Z,12.70
2019-05-12T21:03:06.617Z,12.90
2019-05-12T21:06:41.489Z,12.30
2019-05-12T21:14:11.643Z,11.40
2019-05-12T21:40:15.332Z,10.60
2019-05-12T21:47:26.299Z,10.50
2019-05-12T21:54:43.936Z,10.30
2019-05-12T22:14:05.137Z,10.00
2019-05-12T22:24:46.121Z,9.80
2019-05-12T22:31:29.633Z,9.70
2019-05-12T22:35:21.846Z,9.60
2019-05-12T22:38:44.354Z,9.50
2019-05-12T22:41:44.329Z,9.50
2019-05-12T22:45:23.952Z,9.40
2019-05-12T22:48:20.401Z,9.50
2019-05-12T22:54:50.738Z,9.30
2019-05-12T22:58:33.822Z,9.30
2019-05-12T23:02:04.641Z,9.20
2019-05-12T23:09:30.047Z,9.00
2019-05-12T23:12:34.945Z,8.90
2019-05-12T23:16:14.046Z,8.90
2019-05-12T23:19:25.443Z,8.80
2019-05-12T23:26:00.100Z,8.70
2019-05-12T23:28:50.311Z,8.60
2019-05-12T23:31:30.263Z,8.60
2019-05-12T23:34:14.538Z,8.60
2019-05-12T23:37:30.211Z,8.60
2019-05-12T23:40:16.518Z,8.60
2019-05-12T23:42:53.599Z,8.60
2019-05-12T23:45:36.713Z,8.50
2019-05-12T23:48:33.389Z,8.40
2019-05-12T23:51:20.841Z,8.40
2019-05-12T23:54:03.762Z,8.40
2019-05-12T23:56:53.521Z,8.50
2019-05-12T23:59:35.090Z,8.40
